Time;durP1;ratioP1;P1;durP2;ratioP2;P2;SDS_P1;SDS_P2;PMS_P1;PMS_P2;Temp;Humidity;BMP_temperature;BMP_pressure;BME280_temperature;BME280_humidity;BME280_pressure;Samples;Min_cycle;Max_cycle;Signal;HPM_P1;HPM_P2
2022/07/16 00:02:55;;;;;;;3.78;2.00;;;;;;;13.06;100.00;101445.31;4990266;28;20228;-51
2022/07/16 00:05:20;;;;;;;3.17;2.13;;;;;;;13.07;100.00;101438.09;4991099;28;20237;-49
2022/07/16 00:07:46;;;;;;;4.75;2.17;;;;;;;13.14;100.00;101439.59;4991095;28;20267;-49
2022/07/16 00:10:11;;;;;;;3.00;2.20;;;;;;;13.19;100.00;101437.63;4990453;28;20193;-50
2022/07/16 00:12:37;;;;;;;3.35;2.00;;;;;;;13.20;100.00;101434.88;4991005;28;20655;-51
2022/07/16 00:15:04;;;;;;;3.25;2.10;;;;;;;13.26;100.00;101440.97;4990103;28;20326;-49
2022/07/16 00:17:30;;;;;;;2.60;2.40;;;;;;;13.21;100.00;101438.44;4990778;28;20168;-48
2022/07/16 00:19:55;;;;;;;6.28;2.40;;;;;;;13.28;100.00;101433.69;4990310;28;20677;-47
2022/07/16 00:22:21;;;;;;;4.10;2.42;;;;;;;13.27;100.00;101434.63;4990398;28;20700;-48
2022/07/16 00:24:46;;;;;;;6.53;2.53;;;;;;;13.26;100.00;101427.50;4990233;28;20184;-47
2022/07/16 00:27:12;;;;;;;2.63;2.20;;;;;;;13.31;100.00;101422.84;4989974;28;20252;-47
2022/07/16 00:29:37;;;;;;;3.85;2.13;;;;;;;13.29;100.00;101428.28;4990774;28;20627;-47
2022/07/16 00:32:03;;;;;;;2.45;2.20;;;;;;;13.25;100.00;101415.88;4990337;28;20420;-49
2022/07/16 00:34:29;;;;;;;3.38;2.10;;;;;;;13.25;100.00;101414.97;4989520;28;20217;-49
2022/07/16 00:36:54;;;;;;;6.18;2.20;;;;;;;13.22;100.00;101407.91;4973053;28;20606;-50
2022/07/16 00:39:20;;;;;;;3.78;2.50;;;;;;;13.35;100.00;101406.50;4990181;28;20197;-50
2022/07/16 00:41:47;;;;;;;3.28;2.05;;;;;;;13.35;100.00;101409.19;4990149;28;20203;-51
2022/07/16 00:44:17;;;;;;;2.63;2.20;;;;;;;13.32;100.00;101401.25;4990046;28;20581;-53
2022/07/16 00:46:44;;;;;;;5.80;2.90;;;;;;;13.28;100.00;101399.63;4990109;28;20212;-51
2022/07/16 00:49:10;;;;;;;3.47;2.47;;;;;;;13.30;100.00;101402.25;4990186;28;20607;-52
2022/07/16 00:51:40;;;;;;;5.93;2.35;;;;;;;13.33;100.00;101388.66;4990174;28;20172;-52
2022/07/16 00:54:06;;;;;;;9.32;2.50;;;;;;;13.41;100.00;101386.53;4990019;28;20185;-54
2022/07/16 00:56:31;;;;;;;4.20;2.03;;;;;;;13.37;100.00;101393.00;4972430;28;20252;-54
2022/07/16 00:58:57;;;;;;;5.38;2.60;;;;;;;13.40;100.00;101384.78;4990335;28;20731;-52
2022/07/16 01:01:23;;;;;;;6.85;2.38;;;;;;;13.30;100.00;101378.91;4989954;28;20196;-52
2022/07/16 01:03:49;;;;;;;7.72;2.97;;;;;;;13.40;100.00;101374.00;4989848;28;20193;-51
2022/07/16 01:06:15;;;;;;;5.07;2.50;;;;;;;13.38;100.00;101375.88;4990067;28;20301;-51
2022/07/16 01:08:44;;;;;;;3.65;2.10;;;;;;;13.43;100.00;101367.66;4989948;28;20267;-51
2022/07/16 01:11:16;;;;;;;3.55;2.58;;;;;;;13.41;100.00;101354.25;4990072;28;20189;-50
2022/07/16 01:13:43;;;;;;;3.85;2.70;;;;;;;13.40;100.00;101360.56;4989509;28;20173;-51
2022/07/16 01:16:10;;;;;;;3.33;2.17;;;;;;;13.44;100.00;101350.53;4990067;28;20643;-52
2022/07/16 01:18:37;;;;;;;4.43;2.80;;;;;;;13.40;100.00;101357.84;4972724;28;20220;-53
2022/07/16 01:21:03;;;;;;;3.83;2.60;;;;;;;13.30;100.00;101354.69;4990074;28;20637;-50
2022/07/16 01:23:29;;;;;;;3.80;2.20;;;;;;;13.33;100.00;101365.31;4989344;28;20216;-49
2022/07/16 01:25:54;;;;;;;4.05;2.47;;;;;;;13.32;100.00;101381.53;4972380;28;20517;-50
2022/07/16 01:28:21;;;;;;;14.57;3.58;;;;;;;13.29;100.00;101379.84;4989892;28;20206;-48
2022/07/16 01:30:48;;;;;;;7.88;3.28;;;;;;;13.27;100.00;101383.50;4990142;28;20180;-51
2022/07/16 01:33:28;;;;;;;4.05;2.22;;;;;;;13.33;100.00;101375.22;4989255;28;20168;-51
2022/07/16 01:35:57;;;;;;;4.50;1.27;;;;;;;13.42;100.00;101384.72;4990085;28;20161;-50
2022/07/16 01:38:24;;;;;;;1.10;0.80;;;;;;;13.30;100.00;101375.34;4990337;28;20193;-50
2022/07/16 01:40:50;;;;;;;1.35;1.13;;;;;;;13.22;100.00;101382.81;4982874;28;20661;-49
2022/07/16 01:43:19;;;;;;;1.52;1.20;;;;;;;13.25;100.00;101382.69;4991989;28;20205;-51
2022/07/16 01:45:45;;;;;;;1.40;1.30;;;;;;;13.17;100.00;101389.25;4992886;28;20184;-49
2022/07/16 01:48:12;;;;;;;1.20;1.20;;;;;;;13.23;100.00;101379.16;4993247;28;20173;-50
2022/07/16 01:50:40;;;;;;;1.35;1.25;;;;;;;13.28;100.00;101377.19;4992499;28;20174;-52
2022/07/16 01:53:06;;;;;;;4.57;1.30;;;;;;;13.24;100.00;101376.44;4975388;28;20185;-48
2022/07/16 01:55:33;;;;;;;2.55;2.03;;;;;;;13.26;100.00;101379.06;4992858;28;20174;-50
2022/07/16 01:58:00;;;;;;;2.83;1.40;;;;;;;13.23;100.00;101384.56;4975083;28;20182;-51
2022/07/16 02:00:26;;;;;;;2.45;1.35;;;;;;;13.20;100.00;101377.50;4992664;28;20196;-48
2022/07/16 02:02:52;;;;;;;2.53;1.50;;;;;;;13.18;100.00;101377.56;4992703;28;20201;-48
2022/07/16 02:05:17;;;;;;;3.63;1.63;;;;;;;13.09;100.00;101368.97;4992720;28;20245;-50
2022/07/16 02:07:43;;;;;;;4.90;1.50;;;;;;;13.13;100.00;101371.47;4992385;28;20189;-50
2022/07/16 02:10:08;;;;;;;3.03;1.63;;;;;;;13.19;100.00;101371.22;4992973;28;20637;-46
2022/07/16 02:12:34;;;;;;;3.00;1.63;;;;;;;13.21;100.00;101379.25;4993042;28;20540;-46
2022/07/16 02:14:59;;;;;;;2.53;1.60;;;;;;;13.23;100.00;101379.16;4992527;28;20701;-49
2022/07/16 02:17:25;;;;;;;4.60;1.33;;;;;;;13.22;100.00;101378.31;4992944;28;20181;-48
2022/07/16 02:19:51;;;;;;;3.58;1.40;;;;;;;13.25;100.00;101382.69;4992239;28;20228;-48
2022/07/16 02:22:16;;;;;;;1.55;1.40;;;;;;;13.18;100.00;101373.97;4992858;28;20306;-49
2022/07/16 02:24:42;;;;;;;3.42;1.50;;;;;;;13.26;100.00;101366.47;4992094;28;20466;-49
2022/07/16 02:27:07;;;;;;;2.28;1.60;;;;;;;13.24;100.00;101384.50;4974886;28;20313;-50
2022/07/16 02:29:33;;;;;;;3.08;1.50;;;;;;;13.18;100.00;101371.28;4992380;28;20399;-47
2022/07/16 02:31:58;;;;;;;2.20;1.15;;;;;;;13.23;100.00;101380.06;4992477;28;20174;-49
2022/07/16 02:34:24;;;;;;;2.80;1.70;;;;;;;13.23;100.00;101376.47;4991991;28;20630;-51
2022/07/16 02:36:50;;;;;;;3.33;1.88;;;;;;;13.26;100.00;101381.75;4992127;28;20173;-48
2022/07/16 02:39:15;;;;;;;1.77;1.60;;;;;;;13.18;100.00;101380.25;4992457;28;20601;-48
2022/07/16 02:41:41;;;;;;;5.40;1.83;;;;;;;13.17;100.00;101374.94;4992340;28;20209;-49
2022/07/16 02:44:06;;;;;;;4.35;2.00;;;;;;;13.15;100.00;101380.38;4991583;28;20166;-49
2022/07/16 02:46:32;;;;;;;3.92;1.60;;;;;;;13.14;100.00;101380.41;4992418;28;20174;-47
2022/07/16 02:48:57;;;;;;;6.57;1.73;;;;;;;13.15;100.00;101387.56;4974056;28;20563;-46
2022/07/16 02:51:23;;;;;;;2.78;1.73;;;;;;;13.05;100.00;101391.56;4991926;28;20205;-49
2022/07/16 02:53:49;;;;;;;5.18;1.88;;;;;;;13.11;100.00;101400.25;4991622;28;20178;-48
2022/07/16 02:56:15;;;;;;;4.50;1.80;;;;;;;13.12;100.00;101415.47;4992891;28;20233;-48
2022/07/16 02:58:40;;;;;;;5.15;1.77;;;;;;;13.17;100.00;101404.53;4991874;28;20201;-48
2022/07/16 03:01:06;;;;;;;6.53;1.95;;;;;;;13.10;100.00;101401.22;4991951;28;20181;-48
2022/07/16 03:03:31;;;;;;;2.05;1.50;;;;;;;13.10;100.00;101411.09;4991150;28;20781;-48
2022/07/16 03:05:57;;;;;;;2.47;1.67;;;;;;;13.13;100.00;101421.72;4974362;28;20239;-51
2022/07/16 03:08:23;;;;;;;3.05;2.00;;;;;;;13.07;100.00;101408.50;4992009;28;20540;-48
2022/07/16 03:10:48;;;;;;;3.92;2.40;;;;;;;12.94;100.00;101402.72;4991166;28;20289;-49
2022/07/16 03:13:14;;;;;;;6.18;2.08;;;;;;;12.92;100.00;101408.19;4991128;28;20181;-49
2022/07/16 03:15:39;;;;;;;6.57;2.10;;;;;;;12.93;100.00;101415.31;4991530;28;20556;-48
2022/07/16 03:18:05;;;;;;;5.10;1.88;;;;;;;12.98;100.00;101415.13;4991025;28;20264;-48
2022/07/16 03:20:30;;;;;;;3.88;1.77;;;;;;;13.08;100.00;101415.66;4974077;28;20209;-48
2022/07/16 03:22:56;;;;;;;5.28;1.80;;;;;;;12.95;100.00;101424.19;4990777;28;20635;-49
2022/07/16 03:25:22;;;;;;;4.35;1.80;;;;;;;12.90;100.00;101423.50;4990851;28;20196;-48
2022/07/16 03:27:47;;;;;;;5.28;2.00;;;;;;;12.96;100.00;101425.94;4991354;28;20169;-48
2022/07/16 03:30:14;;;;;;;6.95;2.00;;;;;;;12.90;100.00;101433.38;4991024;28;20224;-48
2022/07/16 03:32:39;;;;;;;3.67;2.00;;;;;;;12.98;100.00;101420.50;4990901;28;20189;-48
2022/07/16 03:35:06;;;;;;;5.43;1.80;;;;;;;12.89;100.00;101437.88;4990958;28;20162;-49
2022/07/16 03:37:32;;;;;;;3.70;2.20;;;;;;;12.94;100.00;101432.31;4990826;28;20252;-47
2022/07/16 03:39:58;;;;;;;4.63;2.08;;;;;;;12.92;100.00;101440.47;4990286;28;20189;-49
2022/07/16 03:42:23;;;;;;;5.10;2.00;;;;;;;12.96;100.00;101443.91;4981402;28;20221;-48
2022/07/16 03:44:49;;;;;;;5.05;1.85;;;;;;;12.86;100.00;101458.66;4990726;28;20216;-47
2022/07/16 03:47:14;;;;;;;4.32;1.63;;;;;;;12.80;100.00;101464.25;4972817;28;20266;-49
2022/07/16 03:49:40;;;;;;;3.97;1.60;;;;;;;12.78;100.00;101465.16;4990698;28;20692;-49
2022/07/16 03:52:05;;;;;;;6.80;1.80;;;;;;;12.78;100.00;101462.47;4979735;28;20185;-50
2022/07/16 03:54:31;;;;;;;2.65;1.48;;;;;;;12.69;100.00;101470.91;4990060;28;20223;-50
2022/07/16 03:56:56;;;;;;;6.55;1.77;;;;;;;12.63;100.00;101468.44;4990846;28;20189;-50
2022/07/16 03:59:22;;;;;;;6.97;2.17;;;;;;;12.75;100.00;101481.44;4990438;28;20205;-51
2022/07/16 04:01:47;;;;;;;4.43;2.35;;;;;;;12.75;100.00;101472.50;4972141;28;20194;-51
2022/07/16 04:04:13;;;;;;;6.95;1.70;;;;;;;12.69;100.00;101478.09;4990290;28;20180;-48
2022/07/16 04:06:39;;;;;;;6.35;1.65;;;;;;;12.74;100.00;101485.03;4990385;28;20633;-49
2022/07/16 04:09:05;;;;;;;7.07;2.08;;;;;;;12.71;100.00;101486.97;4990252;28;20320;-46
2022/07/16 04:11:30;;;;;;;6.43;1.77;;;;;;;12.76;100.00;101483.16;4990916;28;20170;-50
2022/07/16 04:13:56;;;;;;;8.48;1.70;;;;;;;12.70;100.00;101483.41;4990826;28;20171;-49
2022/07/16 04:16:22;;;;;;;11.90;1.67;;;;;;;12.70;100.00;101490.59;4990271;28;20188;-50
2022/07/16 04:18:48;;;;;;;6.13;1.30;;;;;;;12.66;100.00;101497.91;4990499;28;20201;-50
2022/07/16 04:21:14;;;;;;;7.35;1.52;;;;;;;12.65;100.00;101493.44;4990771;28;20274;-48
2022/07/16 04:23:40;;;;;;;6.47;1.40;;;;;;;12.57;100.00;101506.28;4952899;28;20222;-48
2022/07/16 04:26:05;;;;;;;8.65;1.60;;;;;;;12.53;100.00;101502.84;4971215;28;20234;-49
2022/07/16 04:28:31;;;;;;;5.70;1.65;;;;;;;12.61;100.00;101507.94;4971177;28;20206;-48
2022/07/16 04:30:56;;;;;;;5.35;1.30;;;;;;;12.42;100.00;101513.09;4970931;28;20619;-49
2022/07/16 04:33:22;;;;;;;4.35;1.90;;;;;;;12.56;100.00;101509.91;4970648;28;20162;-48
2022/07/16 04:35:48;;;;;;;5.82;1.83;;;;;;;12.62;100.00;101507.00;4970846;28;20625;-50
2022/07/16 04:38:15;;;;;;;7.05;1.65;;;;;;;12.57;100.00;101519.72;4971321;28;20265;-49
2022/07/16 04:40:40;;;;;;;5.97;1.50;;;;;;;12.63;100.00;101514.13;4971127;28;20575;-50
2022/07/16 04:43:06;;;;;;;7.63;1.27;;;;;;;12.54;100.00;101522.53;4970340;28;20217;-47
2022/07/16 04:45:32;;;;;;;5.75;1.42;;;;;;;12.42;100.00;101523.84;4971426;28;20186;-50
2022/07/16 04:47:57;;;;;;;7.38;1.70;;;;;;;12.56;100.00;101518.84;4970580;28;20209;-47
2022/07/16 04:50:23;;;;;;;6.85;1.58;;;;;;;12.56;100.00;101517.97;4970780;28;20202;-48
2022/07/16 04:52:48;;;;;;;3.95;1.40;;;;;;;12.64;100.00;101523.06;4970749;28;20163;-51
2022/07/16 04:55:14;;;;;;;5.60;1.52;;;;;;;12.73;100.00;101523.63;4953208;28;20225;-49
2022/07/16 04:57:39;;;;;;;6.45;1.80;;;;;;;12.69;100.00;101529.19;4970861;28;20185;-47
2022/07/16 05:00:05;;;;;;;6.15;1.65;;;;;;;12.67;100.00;101526.53;4970328;28;20213;-48
2022/07/16 05:05:15;;;;;;;10.95;1.50;;;;;;;12.57;100.00;101527.78;4970197;28;20328;-47
2022/07/16 05:07:40;;;;;;;6.53;1.45;;;;;;;12.65;100.00;101528.41;4971007;28;20397;-49
2022/07/16 05:10:06;;;;;;;5.82;1.50;;;;;;;12.69;100.00;101523.78;4970707;28;20583;-48
2022/07/16 05:12:31;;;;;;;6.72;2.30;;;;;;;12.85;100.00;101540.25;4971245;28;20652;-47
2022/07/16 05:14:57;;;;;;;10.02;2.78;;;;;;;12.90;100.00;101532.88;4974292;28;20265;-47
2022/07/16 05:17:22;;;;;;;5.45;1.60;;;;;;;12.94;99.71;101535.44;4974234;28;20225;-49
2022/07/16 05:19:48;;;;;;;8.25;1.98;;;;;;;12.92;99.04;101544.47;4974898;28;20246;-47
2022/07/16 05:22:13;;;;;;;5.57;1.15;;;;;;;12.93;98.81;101536.34;4975174;28;20201;-48
2022/07/16 05:24:39;;;;;;;5.82;1.63;;;;;;;12.99;98.26;101541.50;4993428;28;20667;-47
2022/07/16 05:27:04;;;;;;;7.10;1.42;;;;;;;12.90;96.88;101546.31;4994221;28;20181;-48
2022/07/16 05:29:30;;;;;;;5.80;1.98;;;;;;;12.96;96.43;101552.34;4993109;28;20283;-48
2022/07/16 05:31:56;;;;;;;6.30;1.42;;;;;;;12.95;95.61;101549.75;4993855;28;20180;-48
2022/07/16 05:34:21;;;;;;;6.75;1.52;;;;;;;12.98;95.25;101552.31;4975711;28;20192;-48
2022/07/16 05:36:46;;;;;;;6.63;1.00;;;;;;;13.08;95.76;101553.75;4993995;28;20177;-48
2022/07/16 05:39:12;;;;;;;7.38;1.60;;;;;;;13.14;95.72;101560.69;4993426;28;20212;-48
2022/07/16 05:41:37;;;;;;;7.07;1.10;;;;;;;13.06;95.15;101557.44;4993054;28;20311;-47
2022/07/16 05:44:03;;;;;;;10.43;1.30;;;;;;;13.27;94.23;101553.03;4993048;28;20617;-49
2022/07/16 05:46:29;;;;;;;8.05;1.60;;;;;;;13.41;93.37;101566.03;4992974;28;20166;-48
2022/07/16 05:48:54;;;;;;;3.97;1.27;;;;;;;13.22;91.86;101549.66;5008526;28;20185;-48
2022/07/16 05:51:20;;;;;;;6.97;1.63;;;;;;;13.16;92.03;101559.72;4993197;28;20534;-48
2022/07/16 05:53:45;;;;;;;12.20;1.98;;;;;;;13.28;91.72;101554.81;4992761;28;20193;-48
2022/07/16 05:56:11;;;;;;;7.38;1.23;;;;;;;13.24;90.79;101558.53;4993251;28;20181;-47
2022/07/16 05:58:36;;;;;;;6.18;1.15;;;;;;;13.29;90.46;101580.81;4993458;28;20736;-48
2022/07/16 06:01:02;;;;;;;6.53;1.30;;;;;;;13.24;89.65;101578.25;4992260;28;20543;-47
2022/07/16 06:03:27;;;;;;;6.35;1.17;;;;;;;13.42;88.52;101584.78;4992453;28;20244;-47
2022/07/16 06:05:53;;;;;;;6.25;1.35;;;;;;;13.65;88.92;101573.13;4993297;28;20182;-48
2022/07/16 06:08:18;;;;;;;5.75;1.10;;;;;;;13.80;87.59;101580.63;4993026;28;20582;-47
2022/07/16 06:10:44;;;;;;;7.32;1.10;;;;;;;13.38;87.80;101581.34;4992803;28;20188;-46
2022/07/16 06:13:10;;;;;;;5.30;1.17;;;;;;;13.63;88.88;101582.22;4992495;28;20166;-48
2022/07/16 06:15:36;;;;;;;5.85;1.13;;;;;;;13.91;88.18;101590.09;4992528;28;20328;-50
2022/07/16 06:18:02;;;;;;;6.32;1.27;;;;;;;13.95;86.12;101589.91;4993119;28;20181;-48
2022/07/16 06:20:27;;;;;;;8.40;1.40;;;;;;;14.09;86.30;101601.94;4998148;28;20180;-47
2022/07/16 06:22:54;;;;;;;11.75;1.40;;;;;;;14.32;84.85;101606.38;4995945;28;20227;-49
2022/07/16 06:25:20;;;;;;;3.65;1.35;;;;;;;14.27;83.72;101611.97;4991638;28;20657;-48
2022/07/16 06:27:46;;;;;;;6.25;1.25;;;;;;;14.54;83.17;101618.03;4992581;28;20181;-48
2022/07/16 06:30:13;;;;;;;8.50;1.15;;;;;;;14.53;81.97;101613.56;4992501;28;20196;-50
2022/07/16 06:32:39;;;;;;;5.80;1.10;;;;;;;14.90;83.32;101613.84;4992630;28;20154;-48
2022/07/16 06:35:06;;;;;;;2.90;0.95;;;;;;;14.92;80.98;101618.22;4992067;28;20166;-47
2022/07/16 06:37:31;;;;;;;5.85;1.08;;;;;;;14.86;81.70;101610.41;4993056;28;20652;-45
2022/07/16 06:39:57;;;;;;;7.45;1.00;;;;;;;14.98;81.28;101607.16;4992285;28;20296;-47
2022/07/16 06:42:22;;;;;;;4.95;1.20;;;;;;;15.12;79.31;101602.97;4992729;28;20193;-45
2022/07/16 06:44:48;;;;;;;4.60;0.95;;;;;;;15.16;80.43;101607.28;4992780;28;20165;-45
2022/07/16 06:47:14;;;;;;;4.65;1.33;;;;;;;15.11;81.56;101618.31;4992606;28;20244;-46
2022/07/16 06:49:39;;;;;;;6.05;1.35;;;;;;;15.14;79.91;101606.50;4992292;28;20204;-47
2022/07/16 06:52:05;;;;;;;7.20;1.48;;;;;;;15.22;78.17;101607.03;4992119;28;20165;-43
2022/07/16 06:54:30;;;;;;;8.10;1.70;;;;;;;15.06;77.73;101614.91;4992285;28;20161;-46
2022/07/16 06:56:56;;;;;;;11.77;1.20;;;;;;;15.42;78.73;101622.31;4992258;28;20237;-45
2022/07/16 06:59:21;;;;;;;5.43;1.10;;;;;;;15.70;78.80;101616.50;4992182;28;20197;-45
2022/07/16 07:01:47;;;;;;;7.97;1.65;;;;;;;15.42;77.49;101627.72;4992631;28;20745;-45
2022/07/16 07:04:12;;;;;;;7.55;1.48;;;;;;;15.39;77.27;101626.03;4974309;28;20301;-46
2022/07/16 07:06:38;;;;;;;8.07;1.65;;;;;;;15.17;78.66;101636.91;4992492;28;20177;-44
2022/07/16 07:09:03;;;;;;;6.22;1.10;;;;;;;14.94;79.77;101628.97;4992137;28;20517;-46
2022/07/16 07:11:29;;;;;;;3.42;0.90;;;;;;;15.07;79.55;101643.66;4991856;28;20174;-45
2022/07/16 07:13:54;;;;;;;5.82;1.27;;;;;;;15.53;79.21;101643.44;4991873;28;20285;-49
2022/07/16 07:16:20;;;;;;;7.47;1.25;;;;;;;15.64;78.49;101630.31;4974275;28;20537;-44
2022/07/16 07:18:45;;;;;;;10.18;1.55;;;;;;;15.93;76.96;101634.34;4991974;28;20197;-46
2022/07/16 07:21:11;;;;;;;6.65;1.63;;;;;;;15.64;77.96;101636.56;4991812;28;20212;-48
2022/07/16 07:23:36;;;;;;;8.10;1.65;;;;;;;15.56;77.77;101652.25;4973748;28;20201;-46
2022/07/16 07:26:02;;;;;;;7.93;1.27;;;;;;;15.31;77.71;101651.63;4991748;28;20158;-47
2022/07/16 07:28:28;;;;;;;5.18;1.35;;;;;;;15.64;76.36;101644.69;4991341;28;20244;-46
2022/07/16 07:30:56;;;;;;;7.32;1.30;;;;;;;15.64;75.67;101657.31;4991815;28;20286;-46
2022/07/16 07:33:22;;;;;;;4.53;0.98;;;;;;;16.23;75.89;101641.94;4991377;28;20172;-48
2022/07/16 07:35:48;;;;;;;3.58;1.33;;;;;;;16.39;73.93;101642.06;4991624;28;20162;-45
2022/07/16 07:38:13;;;;;;;7.32;1.77;;;;;;;16.66;71.99;101645.19;4991375;28;20182;-48
2022/07/16 07:40:39;;;;;;;13.63;2.20;;;;;;;16.56;70.66;101646.63;4991481;28;20174;-46
2022/07/16 07:43:04;;;;;;;6.43;1.30;;;;;;;16.53;72.29;101647.66;4989938;28;20228;-45
2022/07/16 07:45:30;;;;;;;4.30;0.85;;;;;;;15.88;73.92;101666.13;4990788;28;20181;-46
2022/07/16 07:47:56;;;;;;;9.05;1.25;;;;;;;15.60;73.00;101655.69;4991545;28;20204;-45
2022/07/16 07:50:22;;;;;;;6.32;1.30;;;;;;;15.98;73.25;101663.84;4991176;28;20189;-45
2022/07/16 07:52:47;;;;;;;6.20;1.35;;;;;;;16.32;73.81;101649.59;4990611;28;20376;-46
2022/07/16 07:55:13;;;;;;;4.70;1.20;;;;;;;16.65;70.04;101647.03;4990747;28;20186;-46
2022/07/16 07:57:38;;;;;;;6.53;1.30;;;;;;;16.58;67.80;101640.19;4991438;28;20183;-44
2022/07/16 08:00:08;;;;;;;7.00;1.85;;;;;;;17.41;67.75;101643.16;4990863;28;20236;-47
2022/07/16 08:02:42;;;;;;;4.18;1.30;;;;;;;16.81;68.03;101646.28;4991112;28;20241;-45
2022/07/16 08:05:09;;;;;;;5.38;1.23;;;;;;;17.08;67.36;101644.00;4990648;28;20176;-45
2022/07/16 08:07:35;;;;;;;5.72;1.08;;;;;;;16.87;67.65;101657.66;4990980;28;20605;-48
2022/07/16 08:10:00;;;;;;;5.18;1.15;;;;;;;16.99;68.26;101658.88;4990743;28;20216;-50
2022/07/16 08:12:26;;;;;;;2.67;0.73;;;;;;;16.90;66.41;101656.63;4991062;28;20609;-45
2022/07/16 08:14:51;;;;;;;4.20;0.80;;;;;;;17.07;65.55;101656.63;4990840;28;20634;-44
2022/07/16 08:17:17;;;;;;;2.75;0.95;;;;;;;16.91;64.83;101650.28;4990762;28;20648;-49
2022/07/16 08:19:42;;;;;;;10.02;1.52;;;;;;;17.49;63.94;101649.91;4990696;28;20663;-44
2022/07/16 08:22:08;;;;;;;5.15;1.25;;;;;;;16.99;65.08;101663.38;4990344;28;20602;-52
2022/07/16 08:27:17;;;;;;;2.33;0.88;;;;;;;17.16;66.05;101657.09;4990760;28;20177;-51
2022/07/16 08:29:43;;;;;;;5.68;1.17;;;;;;;16.54;67.28;101668.34;4990000;28;20771;-46
2022/07/16 08:32:08;;;;;;;8.15;1.17;;;;;;;16.72;65.10;101660.25;4990977;28;20165;-46
2022/07/16 08:34:34;;;;;;;4.50;0.80;;;;;;;16.52;66.16;101664.84;4990038;28;20188;-48
2022/07/16 08:37:00;;;;;;;2.97;1.15;;;;;;;16.60;66.11;101661.75;4990474;28;20265;-48
2022/07/16 08:39:25;;;;;;;8.65;1.65;;;;;;;17.16;65.08;101674.22;4990575;28;20256;-43
2022/07/16 08:41:51;;;;;;;3.38;1.00;;;;;;;17.41;63.76;101662.97;4990265;28;20213;-45
2022/07/16 08:44:17;;;;;;;7.82;1.60;;;;;;;17.93;62.68;101659.28;4990229;28;20169;-45
2022/07/16 08:46:42;;;;;;;5.10;1.48;;;;;;;17.26;63.94;101680.06;4990444;28;20253;-47
2022/07/16 08:49:08;;;;;;;4.55;0.85;;;;;;;17.50;63.99;101677.88;4996268;28;20244;-49
2022/07/16 08:51:39;;;;;;;5.50;1.08;;;;;;;17.83;64.07;101677.03;4997062;28;20169;-50
2022/07/16 08:54:18;;;;;;;3.83;1.10;;;;;;;17.85;62.57;101675.97;4996459;28;20216;-47
2022/07/16 08:56:44;;;;;;;5.57;1.08;;;;;;;17.66;60.43;101677.91;4997658;28;20175;-44
2022/07/16 08:59:10;;;;;;;8.23;1.10;;;;;;;17.65;61.87;101681.59;4997055;28;20744;-44
2022/07/16 09:01:36;;;;;;;5.05;1.30;;;;;;;17.81;61.75;101690.63;4996899;28;20197;-44
2022/07/16 09:04:03;;;;;;;2.80;0.85;;;;;;;17.63;62.40;101687.09;4978956;28;20185;-46
2022/07/16 09:06:29;;;;;;;3.42;0.98;;;;;;;18.06;59.87;101694.69;4996442;28;20170;-45
2022/07/16 09:08:55;;;;;;;5.38;0.93;;;;;;;18.32;59.19;101693.25;4996854;28;20462;-44
2022/07/16 09:11:25;;;;;;;3.20;0.90;;;;;;;18.41;57.75;101687.31;4996822;28;20306;-44
2022/07/16 09:14:01;;;;;;;6.28;0.90;;;;;;;17.85;60.87;101699.50;4996807;28;20659;-43
2022/07/16 09:16:28;;;;;;;3.97;1.13;;;;;;;17.58;60.33;101699.13;4996569;28;20223;-44
2022/07/16 09:19:14;;;;;;;7.22;1.33;;;;;;;17.98;61.65;101694.28;4996571;28;20185;-48
2022/07/16 09:22:04;;;;;;;6.50;1.20;;;;;;;18.17;60.07;101691.41;4996626;28;20205;-44
2022/07/16 09:24:43;;;;;;;5.20;0.80;;;;;;;17.91;60.54;101699.16;4996188;28;20181;-48
2022/07/16 09:27:11;;;;;;;4.20;1.02;;;;;;;17.44;60.66;101706.16;4996635;28;20633;-45
2022/07/16 09:29:49;;;;;;;5.50;0.98;;;;;;;17.09;61.31;101706.16;4995760;28;20217;-45
2022/07/16 09:32:39;;;;;;;3.63;0.80;;;;;;;18.15;60.24;101702.34;4995946;28;20174;-45
2022/07/16 09:35:10;;;;;;;5.28;1.20;;;;;;;18.11;58.63;101706.19;4995360;28;20178;-47
2022/07/16 09:38:10;;;;;;;5.65;1.45;;;;;;;18.57;57.90;101709.00;4996966;28;20181;-45
2022/07/16 09:40:46;;;;;;;2.67;0.80;;;;;;;18.03;59.45;101708.44;4963365;28;20679;-46
2022/07/16 09:43:15;;;;;;;3.83;1.02;;;;;;;18.03;58.62;101712.03;4996553;28;20319;-46
2022/07/16 09:45:49;;;;;;;3.30;1.08;;;;;;;18.56;59.04;101714.50;4996135;28;20191;-46
2022/07/16 09:48:17;;;;;;;8.90;1.27;;;;;;;18.86;58.55;101715.47;4996336;28;20683;-46
2022/07/16 09:50:42;;;;;;;5.72;1.08;;;;;;;18.58;58.03;101715.28;4996628;28;20189;-47
2022/07/16 09:53:16;;;;;;;3.60;1.00;;;;;;;18.03;60.50;101731.00;4996067;28;20659;-47
2022/07/16 09:56:06;;;;;;;6.47;1.42;;;;;;;17.42;61.78;101734.28;4996450;28;20260;-45
2022/07/16 09:58:33;;;;;;;4.15;1.08;;;;;;;17.82;60.79;101733.06;4995431;28;20542;-47
2022/07/16 10:01:00;;;;;;;4.35;0.90;;;;;;;18.43;59.47;101727.91;4974981;28;20256;-43
2022/07/16 10:03:27;;;;;;;4.55;1.20;;;;;;;18.49;57.20;101732.97;4992556;28;20292;-46
2022/07/16 10:05:53;;;;;;;6.63;1.35;;;;;;;18.90;56.55;101727.91;4992390;28;20598;-46
2022/07/16 10:08:19;;;;;;;2.70;0.82;;;;;;;18.54;57.41;101717.31;4993752;28;20173;-46
2022/07/16 10:10:46;;;;;;;5.22;0.95;;;;;;;18.41;57.58;101729.81;4992798;28;20173;-46
2022/07/16 10:13:13;;;;;;;5.90;1.00;;;;;;;18.46;59.33;101730.47;4992795;28;20494;-46
2022/07/16 10:15:39;;;;;;;4.28;1.27;;;;;;;18.87;58.02;101728.09;4993720;28;20190;-48
2022/07/16 10:18:30;;;;;;;6.47;1.15;;;;;;;18.76;57.55;101735.97;4993171;28;20165;-47
2022/07/16 10:21:08;;;;;;;10.25;1.42;;;;;;;18.77;58.83;101734.97;4992677;28;20177;-45
2022/07/16 10:23:35;;;;;;;3.65;1.00;;;;;;;18.39;59.02;101751.63;4991937;28;20548;-46
2022/07/16 10:26:06;;;;;;;4.05;1.00;;;;;;;17.77;58.41;101759.50;4993061;28;20174;-45
2022/07/16 10:28:40;;;;;;;5.95;1.35;;;;;;;18.30;58.72;101761.16;5008159;28;20565;-46
2022/07/16 10:31:40;;;;;;;8.45;1.10;;;;;;;18.36;58.18;101759.94;4993001;28;20236;-46
2022/07/16 10:34:15;;;;;;;3.22;1.17;;;;;;;18.58;58.59;101764.16;4992288;28;20181;-45
2022/07/16 10:36:52;;;;;;;4.13;1.25;;;;;;;18.15;58.72;101762.03;5007745;28;20683;-46
2022/07/16 10:39:18;;;;;;;7.13;1.27;;;;;;;18.12;59.73;101767.59;4992876;28;20208;-45
2022/07/16 10:41:51;;;;;;;5.05;1.08;;;;;;;18.96;59.64;101767.41;4992935;28;20216;-45
2022/07/16 10:44:18;;;;;;;3.78;0.80;;;;;;;18.99;58.99;101771.78;4992359;28;20193;-47
2022/07/16 10:46:54;;;;;;;2.85;1.25;;;;;;;19.49;57.76;101767.88;4975394;28;20615;-46
2022/07/16 10:49:21;;;;;;;4.43;1.10;;;;;;;19.01;57.42;101770.72;4992607;28;20197;-45
2022/07/16 10:52:06;;;;;;;3.08;1.08;;;;;;;19.10;58.46;101788.31;4975314;28;20173;-47
2022/07/16 10:54:35;;;;;;;5.68;1.20;;;;;;;18.82;59.25;101798.06;4992254;28;20193;-47
2022/07/16 10:57:09;;;;;;;5.85;1.48;;;;;;;18.59;59.41;101798.50;4992964;28;20205;-48
2022/07/16 10:59:36;;;;;;;3.70;1.10;;;;;;;18.98;58.74;101800.78;4992491;28;20671;-49
2022/07/16 11:02:08;;;;;;;6.60;1.23;;;;;;;19.04;57.57;101797.69;4992487;28;20201;-48
2022/07/16 11:04:35;;;;;;;5.55;1.20;;;;;;;18.93;56.68;101790.19;4991700;28;20185;-50
2022/07/16 11:07:04;;;;;;;8.13;1.58;;;;;;;18.79;59.35;101797.38;4991776;28;20185;-51
2022/07/16 11:09:34;;;;;;;7.82;1.38;;;;;;;19.27;57.49;101790.03;4992364;28;20309;-51
2022/07/16 11:12:11;;;;;;;5.15;1.25;;;;;;;19.34;57.08;101792.28;4991982;28;20197;-49
2022/07/16 11:14:38;;;;;;;8.73;1.45;;;;;;;18.88;58.77;101805.00;4991977;28;20181;-48
2022/07/16 11:17:04;;;;;;;4.15;1.25;;;;;;;18.24;58.46;101806.75;4992177;28;20421;-48
2022/07/16 11:19:34;;;;;;;5.78;1.40;;;;;;;18.06;60.64;101827.59;4991795;28;20216;-47
2022/07/16 11:22:01;;;;;;;5.85;1.42;;;;;;;17.74;61.36;101816.59;4992138;28;20208;-50
2022/07/16 11:24:28;;;;;;;6.78;1.20;;;;;;;18.00;60.06;101819.81;4991231;28;20192;-48
2022/07/16 11:26:56;;;;;;;3.53;1.20;;;;;;;17.68;59.18;101830.47;4992289;28;20594;-48
2022/07/16 11:29:25;;;;;;;4.43;1.30;;;;;;;17.94;61.04;101830.97;5006861;28;20205;-48